Latest Weather Observations for East Sale

IDV60801

Issued at 3:02 pm EDT Monday 30 March 2015 (issued every 30 minutes, with the page automatically refreshed every 10 minutes)

About weather observations | Map of weather stations | Latest weather observations for VIC | Other Formats
Station Details ID: 085072 Name: EAST SALE AIRPORT Lat: -38.12 Lon: 147.13 Height: 4.6 m
Data from the previous 72 hours. | See also: Recent months at East Sale
Date/Time
EDT
Temp
°C
App
Temp
°C
Dew
Point
Rel
Hum
%
Delta-T
°C
Wind Press
QNH
hPa
Press
MSL
hPa
Rain
since 9 am
mm
Dir
 
Spd
km/h
Gust
km/h
Spd
kts
Gust
kts
30/03:00pm 23.7 21.1 12.0 48 6.6 WSW 17 11 9 6 1022.7 1022.7 0.0
30/02:30pm 23.8 22.7 10.8 44 7.2 SSW 7 13 4 7 1022.9 1022.9 0.0
30/02:00pm 23.3 21.9 11.0 46 6.8 S 9 15 5 8 1023.2 1023.2 0.0
30/01:30pm 22.1 20.6 10.6 48 6.3 SE 9 15 5 8 1023.7 1023.7 0.0
30/01:00pm 20.8 20.0 10.9 53 5.4 SE 6 11 3 6 1024.1 1024.1 0.0
30/12:30pm 20.6 20.0 11.8 57 4.9 SW 6 9 3 5 1024.4 1024.4 0.0
30/12:00pm 20.0 19.2 11.2 57 4.8 WNW 6 13 3 7 1024.6 1024.6 0.0
30/11:30am 19.6 18.7 11.4 59 4.5 W 7 13 4 7 1024.9 1024.9 0.0
30/11:00am 18.3 17.2 11.8 66 3.6 W 9 11 5 6 1025.2 1025.2 0.0
30/10:30am 16.4 15.1 11.3 72 2.7 WNW 9 13 5 7 1025.2 1025.2 0.0
30/10:00am 14.6 13.0 11.4 81 1.7 W 11 13 6 7 1025.2 1025.2 0.0
30/09:00am 10.5 8.8 10.0 97 0.3 W 9 11 5 6 1024.8 1024.8 0.0
30/08:30am 9.5 6.9 9.4 99 0.0 WNW 13 15 7 8 1024.6 1024.6 0.0
30/08:09am 9.2 6.5 9.1 99 0.0 NW 13 15 7 8 1024.6 1024.6 0.0
30/07:30am 7.2 5.1 6.8 97 0.2 NW 7 9 4 5 1024.2 1024.2 0.0
30/07:08am 7.5 5.1 7.1 97 0.2 WNW 9 11 5 6 1024.1 1024.1 0.0
30/07:00am 7.4 5.0 7.0 97 0.2 WNW 9 11 5 6 1024.0 1024.0 0.0
30/06:30am 7.4 4.6 7.0 97 0.2 WNW 11 11 6 6 1023.7 1023.7 0.0
30/06:05am 7.7 5.4 7.3 97 0.2 WNW 9 11 5 6 1023.6 1023.6 0.0
30/06:00am 7.7 5.4 7.3 97 0.2 W 9 13 5 7 1023.6 1023.6 0.0
30/05:30am 8.4 5.9 8.0 97 0.2 NW 11 13 6 7 1023.4 1023.4 0.0
30/05:15am 8.4 5.5 8.0 97 0.2 NW 13 15 7 8 1023.3 1023.3 0.0
30/05:04am 8.9 6.5 8.5 97 0.2 NW 11 13 6 7 1023.3 1023.3 0.0
30/05:00am 8.9 6.5 8.5 97 0.2 NW 11 13 6 7 1023.3 1023.3 0.0
30/04:43am 9.0 7.0 8.5 97 0.2 NW 9 11 5 6 1023.3 1023.3 0.0
30/04:30am 8.6 6.1 8.2 97 0.2 NW 11 13 6 7 1023.4 1023.4 0.0
30/04:21am 8.6 7.0 8.2 97 0.2 NW 6 9 3 5 1023.4 1023.4 0.0
30/04:00am 8.4 6.8 7.8 96 0.3 NNW 6 7 3 4 1023.5 1023.5 0.0
30/03:30am 8.4 6.5 7.6 95 0.4 NW 7 9 4 5 1023.6 1023.6 0.0
30/03:00am 9.2 7.7 8.4 95 0.4 WNW 6 7 3 4 1023.8 1023.8 0.0
30/02:30am 9.1 7.6 8.3 95 0.4 WNW 6 7 3 4 1024.0 1024.0 0.0
30/02:00am 9.2 7.6 8.0 92 0.6 WSW 6 6 3 3 1024.2 1024.2 0.0
30/01:30am 9.5 8.0 8.3 92 0.6 SW 6 7 3 4 1024.3 1024.3 0.0
30/01:00am 10.3 8.4 9.2 93 0.5 WNW 9 11 5 6 1024.3 1024.3 0.0
30/12:30am 10.4 9.1 9.2 92 0.6 N 6 7 3 4 1024.2 1024.2 0.0
30/12:00am 11.0 9.8 9.4 90 0.8 NE 6 7 3 4 1024.4 1024.4 0.0
 
Date/Time
EDT
Temp
°C
App
Temp
°C
Dew
Point
Rel
Hum
%
Delta-T
°C
Wind Press
QNH
hPa
Press
MSL
hPa
Rain
since 9 am
mm
Dir
 
Spd
km/h
Gust
km/h
Spd
kts
Gust
kts
29/11:30pm 11.1 9.5 8.7 85 1.2 NE 7 9 4 5 1024.5 1024.5 0.0
29/11:00pm 11.3 9.4 9.0 86 1.1 ENE 9 11 5 6 1024.7 1024.7 0.0
29/10:30pm 12.2 10.3 9.2 82 1.5 E 9 9 5 5 1024.7 1024.7 0.0
29/10:00pm 13.2 12.0 10.2 82 1.5 ESE 7 9 4 5 1024.6 1024.6 0.0
29/09:30pm 12.6 11.0 10.1 85 1.3 ESE 9 11 5 6 1024.3 1024.3 0.0
29/09:00pm 13.8 11.7 11.1 84 1.4 ESE 13 17 7 9 1023.9 1023.9 0.0
29/08:30pm 13.5 12.3 11.6 88 1.0 E 9 11 5 6 1023.5 1023.5 0.0
29/08:00pm 14.0 12.3 11.2 83 1.5 E 11 13 6 7 1022.9 1022.9 0.0
29/07:30pm 15.7 13.3 11.5 76 2.3 E 15 17 8 9 1022.2 1022.2 0.0
29/07:00pm 17.0 14.4 11.9 72 2.8 SE 17 20 9 11 1021.7 1021.7 0.0
29/06:30pm 18.1 15.0 11.7 66 3.5 SE 19 24 10 13 1021.4 1021.4 0.0
29/06:00pm 18.9 15.6 11.5 62 4.0 SE 20 24 11 13 1021.0 1021.0 0.0
29/05:30pm 19.5 15.9 11.8 61 4.3 SE 22 32 12 17 1020.9 1020.9 0.0
29/05:00pm 20.2 16.2 11.7 58 4.7 ESE 24 32 13 17 1020.6 1020.6 0.0
29/04:30pm 20.7 17.1 11.9 57 4.9 SE 22 30 12 16 1020.5 1020.5 0.0
29/04:00pm 22.1 19.8 12.9 56 5.2 S 17 30 9 16 1020.4 1020.4 0.0
29/03:30pm 23.4 19.8 9.8 42 7.4 SW 19 26 10 14 1020.3 1020.3 0.0
29/03:00pm 23.2 19.2 10.3 44 7.1 SSW 22 33 12 18 1020.4 1020.4 0.0
29/02:30pm 23.0 18.9 10.1 44 7.0 SW 22 35 12 19 1020.7 1020.7 0.0
29/02:00pm 22.6 19.0 10.4 46 6.7 WSW 20 30 11 16 1020.9 1020.9 0.0
29/01:30pm 22.3 19.7 12.0 52 5.8 WSW 17 24 9 13 1021.4 1021.4 0.0
29/01:00pm 21.1 17.9 11.2 53 5.4 W 19 28 10 15 1021.8 1021.8 0.0
29/12:30pm 20.3 18.2 11.0 55 5.1 W 13 20 7 11 1022.3 1022.3 0.0
29/12:00pm 19.0 17.4 11.6 62 4.1 W 11 15 6 8 1022.6 1022.6 0.0
29/11:30am 17.4 15.8 11.7 69 3.1 WNW 11 15 6 8 1022.9 1022.9 0.0
29/11:00am 16.3 14.7 11.7 74 2.5 WNW 11 15 6 8 1023.3 1023.3 0.0
29/10:30am 15.3 13.7 11.7 79 1.9 NW 11 15 6 8 1023.5 1023.5 0.0
29/10:00am 13.9 11.9 11.4 85 1.3 NW 13 17 7 9 1023.6 1023.6 0.0
29/09:30am 12.2 9.7 11.1 93 0.6 NW 15 17 8 9 1023.5 1023.5 0.0
29/09:21am 11.3 9.0 10.5 95 0.4 NW 13 15 7 8 1023.5 1023.5 0.0
29/09:16am 11.2 9.0 10.7 97 0.3 NW 13 15 7 8 1023.6 1023.6 0.0
29/09:00am 10.3 7.9 10.0 98 0.2 WNW 13 15 7 8 1023.6 1023.6 0.2
29/08:30am 8.5 6.0 8.4 99 0.0 NW 11 13 6 7 1023.5 1023.5 0.2
29/08:00am 6.9 4.8 6.6 98 0.1 NW 7 9 4 5 1023.1 1023.1 0.2
29/07:30am 6.7 4.2 6.4 98 0.1 WNW 9 9 5 5 1022.5 1022.5 0.2
29/07:00am 6.7 3.4 6.4 98 0.1 WNW 13 15 7 8 1022.2 1022.2 0.0
29/06:30am 6.7 4.2 6.4 98 0.1 NW 9 11 5 6 1021.8 1021.8 0.0
29/06:00am 7.0 4.5 6.7 98 0.1 NW 9 11 5 6 1021.5 1021.5 0.0
29/05:30am 7.5 5.1 7.2 98 0.1 WNW 9 11 5 6 1021.4 1021.4 0.0
29/05:00am 7.4 5.0 7.1 98 0.1 NW 9 9 5 5 1021.2 1021.2 0.0
29/04:30am 7.4 4.6 7.0 97 0.2 NW 11 13 6 7 1021.1 1021.1 0.0
29/04:00am 7.8 5.4 7.2 96 0.3 WNW 9 11 5 6 1021.1 1021.1 0.0
29/03:51am 8.1 6.2 7.5 96 0.3 WNW 7 9 4 5 1021.2 1021.2 0.0
29/03:30am 8.5 6.3 7.9 96 0.3 NW 9 9 5 5 1021.4 1021.4 0.0
29/03:00am 9.2 7.6 8.6 96 0.3 NW 7 7 4 4 1021.5 1021.5 0.0
29/02:59am 9.2 7.6 8.6 96 0.3 NW 7 7 4 4 1021.6 1021.6 0.0
29/02:49am 9.1 7.4 8.5 96 0.3 NW 7 9 4 5 1021.7 1021.7 0.0
29/02:38am 9.1 7.1 8.5 96 0.3 NW 9 11 5 6 1021.9 1021.9 0.0
29/02:30am 9.2 7.2 8.6 96 0.3 WNW 9 9 5 5 1022.0 1022.0 0.0
29/02:00am 9.2 8.1 8.3 94 0.4 W 4 7 2 4 1022.2 1022.2 0.0
29/01:52am 9.3 8.9 8.4 94 0.4 CALM 0 0 0 0 1022.2 1022.2 0.0
29/01:33am 10.1 9.9 9.0 93 0.5 CALM 0 0 0 0 1022.2 1022.2 0.0
29/01:30am 10.1 9.9 9.0 93 0.5 CALM 0 0 0 0 1022.2 1022.2 0.0
29/01:00am 11.3 11.3 9.9 91 0.7 CALM 0 0 0 0 1022.3 1022.3 0.0
29/12:30am 12.2 11.1 10.8 91 0.7 SW 7 9 4 5 1022.6 1022.6 0.0
29/12:00am 12.4 12.7 10.8 90 0.8 CALM 0 0 0 0 1022.5 1022.5 0.0
 
Date/Time
EDT
Temp
°C
App
Temp
°C
Dew
Point
Rel
Hum
%
Delta-T
°C
Wind Press
QNH
hPa
Press
MSL
hPa
Rain
since 9 am
mm
Dir
 
Spd
km/h
Gust
km/h
Spd
kts
Gust
kts
28/11:30pm 12.2 10.6 10.3 88 1.0 WNW 9 9 5 5 1022.8 1022.8 0.0
28/11:00pm 12.5 10.8 10.0 85 1.3 NNW 9 11 5 6 1022.9 1022.9 0.0
28/10:30pm 12.6 10.9 9.8 83 1.4 N 9 11 5 6 1023.1 1023.1 0.0
28/10:00pm 12.8 10.8 10.3 85 1.3 NNW 11 11 6 6 1023.3 1023.3 0.0
28/09:30pm 12.7 11.4 10.1 84 1.3 NNW 7 9 4 5 1023.3 1023.3 0.0
28/09:00pm 13.2 11.9 9.8 80 1.7 NNW 7 9 4 5 1023.2 1023.2 0.0
28/08:30pm 13.4 12.3 10.0 80 1.8 NNE 6 7 3 4 1023.1 1023.1 0.0
28/08:00pm 12.7 11.5 9.5 81 1.6 E 6 9 3 5 1022.8 1022.8 0.0
28/07:30pm 14.4 12.7 9.8 74 2.4 WSW 9 11 5 6 1022.6 1022.6 0.0
28/07:00pm 16.0 14.4 10.3 69 3.0 SW 9 13 5 7 1022.3 1022.3 0.0
28/06:30pm 17.0 14.9 11.1 68 3.2 WSW 13 15 7 8 1022.3 1022.3 0.0
28/06:00pm 17.6 15.2 10.0 61 4.0 WSW 13 17 7 9 1022.3 1022.3 0.0
28/05:30pm 18.4 15.6 10.0 58 4.5 WSW 15 20 8 11 1022.3 1022.3 0.0
28/05:00pm 19.0 16.1 9.5 54 5.0 SW 15 20 8 11 1022.3 1022.3 0.0
28/04:30pm 18.7 15.7 9.2 54 5.0 SW 15 26 8 14 1022.6 1022.6 0.0
28/04:00pm 18.7 16.1 9.5 55 4.8 SW 13 20 7 11 1022.8 1022.8 0.0
28/03:30pm 18.3 14.6 10.2 59 4.3 SW 20 26 11 14 1023.0 1023.0 0.0
28/03:00pm 18.2 14.1 10.1 59 4.3 WSW 22 30 12 16 1023.3 1023.3 0.0
28/02:30pm 17.7 14.2 10.1 61 4.0 WSW 19 26 10 14 1023.4 1023.4 0.0
28/02:00pm 17.3 13.7 9.7 61 4.0 W 19 26 10 14 1023.9 1023.9 0.0
28/01:30pm 18.1 14.2 9.5 57 4.5 W 20 28 11 15 1024.1 1024.1 0.0
28/01:00pm 17.6 14.5 10.2 62 3.9 W 17 26 9 14 1024.4 1024.4 0.0
28/12:30pm 16.6 13.3 9.5 63 3.7 WSW 17 24 9 13 1024.8 1024.8 0.0
28/12:00pm 16.2 12.8 10.5 69 3.0 WSW 19 28 10 15 1025.2 1025.2 0.0
28/11:30am 15.4 11.5 10.8 74 2.4 W 22 30 12 16 1025.5 1025.5 0.0
28/11:00am 15.5 12.2 11.7 78 2.0 W 20 28 11 15 1025.7 1025.7 0.0
28/10:30am 14.8 11.6 11.8 82 1.6 W 20 28 11 15 1025.7 1025.7 0.0
28/10:00am 13.6 10.1 10.9 84 1.4 W 20 26 11 14 1025.7 1025.7 0.0
28/09:30am 13.2 10.3 11.1 87 1.1 W 17 22 9 12 1025.6 1025.6 0.0
28/09:00am 12.6 9.8 11.3 92 0.7 W 17 20 9 11 1025.3 1025.3 3.0
28/08:30am 11.2 8.6 10.7 97 0.3 W 15 20 8 11 1025.1 1025.1 3.0
28/08:00am 9.9 7.8 9.6 98 0.1 W 11 13 6 7 1024.8 1024.8 3.0
28/07:30am 8.0 5.0 7.7 98 0.1 WNW 13 13 7 7 1024.6 1024.6 3.0
28/07:00am 7.4 4.2 7.0 97 0.2 WNW 13 13 7 7 1024.4 1024.4 3.0
28/06:30am 7.5 4.4 7.1 97 0.2 NNW 13 15 7 8 1024.3 1024.3 3.0
28/06:00am 7.1 4.2 6.5 96 0.3 WNW 11 13 6 7 1024.0 1024.0 3.0
28/05:30am 7.6 4.5 7.2 97 0.2 NW 13 15 7 8 1023.9 1023.9 3.0
28/05:00am 8.0 5.0 7.6 97 0.2 NW 13 15 7 8 1023.8 1023.8 3.0
28/04:30am 8.1 5.1 7.5 96 0.3 NW 13 15 7 8 1023.7 1023.7 3.0
28/04:00am 8.9 6.0 8.3 96 0.3 NW 13 15 7 8 1023.6 1023.6 3.0
28/03:30am 9.1 6.2 8.2 94 0.4 NW 13 15 7 8 1023.5 1023.5 3.0
28/03:00am 10.1 7.8 9.0 93 0.5 NNW 11 13 6 7 1023.8 1023.8 3.0
28/02:30am 10.6 7.6 9.4 92 0.6 WNW 15 19 8 10 1023.7 1023.7 3.0
28/02:00am 10.6 7.3 9.4 92 0.6 W 17 20 9 11 1023.7 1023.7 3.0
28/01:30am 10.4 7.0 9.2 92 0.6 W 17 20 9 11 1023.7 1023.7 3.0
28/01:00am 10.5 6.7 9.1 91 0.7 W 19 28 10 15 1023.7 1023.7 3.0
28/12:30am 11.2 8.3 9.5 89 0.9 WSW 15 22 8 12 1023.7 1023.7 3.0
28/12:00am 11.4 8.1 9.7 89 0.9 W 17 20 9 11 1023.7 1023.7 3.0
 
Date/Time
EDT
Temp
°C
App
Temp
°C
Dew
Point
Rel
Hum
%
Delta-T
°C
Wind Press
QNH
hPa
Press
MSL
hPa
Rain
since 9 am
mm
Dir
 
Spd
km/h
Gust
km/h
Spd
kts
Gust
kts
27/11:30pm 11.4 8.1 9.7 89 0.9 W 17 22 9 12 1023.7 1023.7 3.0
27/11:00pm 12.1 8.4 10.0 87 1.1 W 20 24 11 13 1023.7 1023.7 3.0
27/10:30pm 11.9 7.8 10.0 88 1.0 W 22 28 12 15 1023.5 1023.5 3.0
27/10:00pm 12.5 8.0 10.2 86 1.2 W 24 32 13 17 1023.3 1023.3 3.0
27/09:30pm 12.6 7.4 10.1 85 1.3 W 28 32 15 17 1023.3 1023.3 3.0
27/09:00pm 12.7 7.2 10.4 86 1.2 W 30 39 16 21 1022.9 1022.9 3.0
27/08:30pm 13.0 7.9 10.5 85 1.3 W 28 41 15 22 1022.5 1022.5 3.0
27/08:00pm 13.2 7.4 10.9 86 1.2 WNW 32 39 17 21 1022.0 1022.0 3.0
27/07:30pm 13.6 7.8 10.8 83 1.5 W 32 41 17 22 1021.8 1021.8 3.0
27/07:00pm 13.9 8.1 10.7 81 1.7 W 32 46 17 25 1021.6 1021.6 3.0
27/06:30pm 14.0 8.3 11.0 82 1.6 W 32 43 17 23 1021.2 1021.2 3.0
27/06:02pm 13.7 7.4 11.2 85 1.3 W 35 54 19 29 1021.0 1021.0 2.8
27/06:00pm 13.7 7.1 11.2 85 1.3 W 37 54 20 29 1020.9 1020.9 2.8
27/05:59pm 13.7 7.4 11.2 85 1.3 W 35 54 19 29 1020.9 1020.9 2.8
27/05:49pm 14.1 6.7 11.1 82 1.6 W 41 54 22 29 1020.8 1020.8 2.8
27/05:30pm 13.6 7.5 11.7 88 1.0 W 35 50 19 27 1020.6 1020.6 2.8
27/05:29pm 13.6 7.0 11.5 87 1.1 W 37 50 20 27 1020.6 1020.6 2.8
27/05:00pm 14.9 6.5 10.9 77 2.1 W 46 69 25 37 1020.1 1020.1 2.8
27/04:31pm 14.7 6.5 10.5 76 2.2 W 44 63 24 34 1020.0 1020.0 2.8
27/04:30pm 14.6 6.4 10.4 76 2.2 W 44 57 24 31 1019.9 1019.9 2.8
27/04:01pm 15.2 5.9 10.6 74 2.4 W 50 70 27 38 1019.5 1019.5 2.8
27/04:00pm 15.2 5.9 10.4 73 2.5 W 50 65 27 35 1019.5 1019.5 2.8
27/03:30pm 16.1 8.5 11.9 76 2.3 W 43 61 23 33 1019.6 1019.6 2.8

Other Formats:

Comma delimited format used in spreadsheet applications
http://www.bom.gov.au/fwo/IDV60801/IDV60801.94907.axf

JavaScript Object Notation format (JSON) in row-major order
http://www.bom.gov.au/fwo/IDV60801/IDV60801.94907.json